sensor_id;sensor_type;location;lat;lon;timestamp;pressure;altitude;pressure_sealevel;temperature;humidity
61618;BME280;47518;51.776;9.370;2023-02-18T00:00:17;100734.22;;;7.52;81.34
61618;BME280;47518;51.776;9.370;2023-02-18T00:02:44;100729.44;;;7.37;82.46
61618;BME280;47518;51.776;9.370;2023-02-18T00:05:09;100727.44;;;7.29;83.31
61618;BME280;47518;51.776;9.370;2023-02-18T00:07:35;100722.63;;;7.23;82.45
61618;BME280;47518;51.776;9.370;2023-02-18T00:10:03;100718.91;;;7.34;81.69
61618;BME280;47518;51.776;9.370;2023-02-18T00:12:30;100718.88;;;7.43;80.92
61618;BME280;47518;51.776;9.370;2023-02-18T00:14:55;100710.50;;;7.37;81.09
61618;BME280;47518;51.776;9.370;2023-02-18T00:17:21;100708.91;;;7.53;80.33
61618;BME280;47518;51.776;9.370;2023-02-18T00:19:46;100710.78;;;7.34;81.00
61618;BME280;47518;51.776;9.370;2023-02-18T00:22:11;100719.31;;;7.29;81.23
61618;BME280;47518;51.776;9.370;2023-02-18T00:24:37;100714.03;;;7.47;80.26
61618;BME280;47518;51.776;9.370;2023-02-18T00:27:03;100714.75;;;7.39;81.71
61618;BME280;47518;51.776;9.370;2023-02-18T00:29:28;100711.81;;;7.32;80.52
61618;BME280;47518;51.776;9.370;2023-02-18T00:31:53;100712.03;;;7.49;80.08
61618;BME280;47518;51.776;9.370;2023-02-18T00:34:18;100703.69;;;7.70;79.07
61618;BME280;47518;51.776;9.370;2023-02-18T00:36:44;100709.66;;;7.73;79.27
61618;BME280;47518;51.776;9.370;2023-02-18T00:39:10;100696.31;;;7.62;80.40
61618;BME280;47518;51.776;9.370;2023-02-18T00:41:36;100711.78;;;7.42;80.53
61618;BME280;47518;51.776;9.370;2023-02-18T00:44:02;100705.03;;;7.56;80.58
61618;BME280;47518;51.776;9.370;2023-02-18T00:46:28;100698.28;;;7.70;80.19
61618;BME280;47518;51.776;9.370;2023-02-18T00:48:54;100705.06;;;7.83;78.81
61618;BME280;47518;51.776;9.370;2023-02-18T00:51:20;100704.66;;;7.41;81.58
61618;BME280;47518;51.776;9.370;2023-02-18T00:53:45;100701.34;;;7.57;80.82
61618;BME280;47518;51.776;9.370;2023-02-18T00:56:11;100694.25;;;7.46;81.68
61618;BME280;47518;51.776;9.370;2023-02-18T00:58:37;100700.31;;;7.58;81.96
61618;BME280;47518;51.776;9.370;2023-02-18T01:01:04;100703.88;;;7.58;83.57
61618;BME280;47518;51.776;9.370;2023-02-18T01:03:30;100699.63;;;7.56;82.89
61618;BME280;47518;51.776;9.370;2023-02-18T01:05:55;100700.91;;;7.52;83.43
61618;BME280;47518;51.776;9.370;2023-02-18T01:08:24;100700.91;;;7.52;83.37
61618;BME280;47518;51.776;9.370;2023-02-18T01:10:52;100702.38;;;7.74;82.50
61618;BME280;47518;51.776;9.370;2023-02-18T01:13:18;100693.69;;;7.80;82.08
61618;BME280;47518;51.776;9.370;2023-02-18T01:15:44;100693.34;;;7.93;82.01
61618;BME280;47518;51.776;9.370;2023-02-18T01:18:11;100698.38;;;7.87;83.42
61618;BME280;47518;51.776;9.370;2023-02-18T01:20:38;100699.50;;;7.85;82.08
61618;BME280;47518;51.776;9.370;2023-02-18T01:23:04;100703.00;;;7.95;81.50
61618;BME280;47518;51.776;9.370;2023-02-18T01:25:30;100699.44;;;7.95;80.68
61618;BME280;47518;51.776;9.370;2023-02-18T01:27:56;100701.16;;;7.96;80.18
61618;BME280;47518;51.776;9.370;2023-02-18T01:30:22;100698.78;;;7.83;81.59
61618;BME280;47518;51.776;9.370;2023-02-18T01:32:48;100701.88;;;7.60;83.57
61618;BME280;47518;51.776;9.370;2023-02-18T01:35:15;100696.94;;;7.83;83.60
61618;BME280;47518;51.776;9.370;2023-02-18T01:37:41;100690.91;;;7.62;83.53
61618;BME280;47518;51.776;9.370;2023-02-18T01:40:08;100692.59;;;7.63;84.10
61618;BME280;47518;51.776;9.370;2023-02-18T01:42:34;100689.38;;;7.87;82.59
61618;BME280;47518;51.776;9.370;2023-02-18T01:48:28;100683.06;;;7.96;84.01
61618;BME280;47518;51.776;9.370;2023-02-18T01:51:00;100671.22;;;7.97;83.93
61618;BME280;47518;51.776;9.370;2023-02-18T01:53:32;100664.91;;;8.06;85.17
61618;BME280;47518;51.776;9.370;2023-02-18T01:56:02;100657.03;;;8.13;84.63
61618;BME280;47518;51.776;9.370;2023-02-18T01:58:29;100661.97;;;8.17;84.28
61618;BME280;47518;51.776;9.370;2023-02-18T02:00:55;100673.75;;;8.26;83.05
61618;BME280;47518;51.776;9.370;2023-02-18T02:03:21;100668.56;;;8.33;83.00
61618;BME280;47518;51.776;9.370;2023-02-18T02:05:46;100666.81;;;8.24;83.13
61618;BME280;47518;51.776;9.370;2023-02-18T02:08:11;100664.09;;;8.24;82.69
61618;BME280;47518;51.776;9.370;2023-02-18T02:13:32;100657.53;;;7.99;84.47
61618;BME280;47518;51.776;9.370;2023-02-18T02:16:24;100655.22;;;8.04;84.66
61618;BME280;47518;51.776;9.370;2023-02-18T02:19:31;100642.44;;;8.24;84.39
61618;BME280;47518;51.776;9.370;2023-02-18T02:24:53;100623.47;;;8.24;85.04
61618;BME280;47518;51.776;9.370;2023-02-18T02:27:47;100626.00;;;8.25;84.11
61618;BME280;47518;51.776;9.370;2023-02-18T02:43:39;100616.53;;;8.39;86.15
61618;BME280;47518;51.776;9.370;2023-02-18T02:46:14;100613.09;;;8.55;85.22
61618;BME280;47518;51.776;9.370;2023-02-18T02:49:19;100609.47;;;8.64;84.79
61618;BME280;47518;51.776;9.370;2023-02-18T02:54:30;100603.50;;;8.60;85.31
61618;BME280;47518;51.776;9.370;2023-02-18T03:10:33;100556.22;;;8.37;92.57
61618;BME280;47518;51.776;9.370;2023-02-18T03:13:09;100548.97;;;8.63;91.99
61618;BME280;47518;51.776;9.370;2023-02-18T03:28:53;100524.75;;;9.22;90.23
61618;BME280;47518;51.776;9.370;2023-02-18T03:31:22;100527.22;;;9.41;89.23
61618;BME280;47518;51.776;9.370;2023-02-18T03:33:54;100529.53;;;9.28;90.59
61618;BME280;47518;51.776;9.370;2023-02-18T03:36:22;100523.72;;;9.65;89.19
61618;BME280;47518;51.776;9.370;2023-02-18T03:38:59;100514.75;;;9.64;88.35
61618;BME280;47518;51.776;9.370;2023-02-18T03:41:26;100510.63;;;9.52;89.66
61618;BME280;47518;51.776;9.370;2023-02-18T03:43:54;100518.78;;;9.52;89.90
61618;BME280;47518;51.776;9.370;2023-02-18T03:46:24;100510.03;;;9.32;92.09
61618;BME280;47518;51.776;9.370;2023-02-18T03:48:50;100505.00;;;9.46;91.98
61618;BME280;47518;51.776;9.370;2023-02-18T03:51:15;100491.47;;;9.54;92.63
61618;BME280;47518;51.776;9.370;2023-02-18T03:53:41;100490.16;;;9.82;91.33
61618;BME280;47518;51.776;9.370;2023-02-18T03:56:06;100494.25;;;10.03;89.55
61618;BME280;47518;51.776;9.370;2023-02-18T03:58:32;100492.56;;;10.02;90.72
61618;BME280;47518;51.776;9.370;2023-02-18T04:00:57;100488.50;;;10.14;88.59
61618;BME280;47518;51.776;9.370;2023-02-18T04:03:22;100488.00;;;10.10;89.42
61618;BME280;47518;51.776;9.370;2023-02-18T04:05:47;100479.31;;;10.07;89.54
61618;BME280;47518;51.776;9.370;2023-02-18T04:08:13;100480.66;;;9.94;89.72
61618;BME280;47518;51.776;9.370;2023-02-18T04:10:38;100479.81;;;9.94;89.87
61618;BME280;47518;51.776;9.370;2023-02-18T04:13:03;100477.28;;;9.92;89.97
61618;BME280;47518;51.776;9.370;2023-02-18T04:15:29;100480.13;;;9.83;91.27
61618;BME280;47518;51.776;9.370;2023-02-18T04:17:54;100480.47;;;9.80;91.75
61618;BME280;47518;51.776;9.370;2023-02-18T04:20:19;100478.25;;;9.67;91.95
61618;BME280;47518;51.776;9.370;2023-02-18T04:22:46;100478.94;;;9.61;92.61
61618;BME280;47518;51.776;9.370;2023-02-18T04:25:11;100478.22;;;9.59;92.60
61618;BME280;47518;51.776;9.370;2023-02-18T04:27:37;100477.16;;;9.35;95.11
61618;BME280;47518;51.776;9.370;2023-02-18T04:30:04;100467.78;;;9.22;99.43
61618;BME280;47518;51.776;9.370;2023-02-18T04:32:29;100465.91;;;9.22;100.00
61618;BME280;47518;51.776;9.370;2023-02-18T04:34:54;100453.91;;;9.33;100.00
61618;BME280;47518;51.776;9.370;2023-02-18T04:37:20;100458.84;;;9.38;100.00
61618;BME280;47518;51.776;9.370;2023-02-18T04:39:45;100453.59;;;9.36;100.00
61618;BME280;47518;51.776;9.370;2023-02-18T04:42:10;100453.09;;;9.49;100.00
61618;BME280;47518;51.776;9.370;2023-02-18T04:44:36;100444.28;;;9.47;100.00
61618;BME280;47518;51.776;9.370;2023-02-18T04:47:03;100441.09;;;9.51;100.00
61618;BME280;47518;51.776;9.370;2023-02-18T04:49:29;100438.34;;;9.43;100.00
61618;BME280;47518;51.776;9.370;2023-02-18T04:51:54;100433.59;;;9.45;100.00
61618;BME280;47518;51.776;9.370;2023-02-18T04:54:19;100447.53;;;9.50;100.00
61618;BME280;47518;51.776;9.370;2023-02-18T04:56:45;100434.47;;;9.54;100.00
61618;BME280;47518;51.776;9.370;2023-02-18T04:59:10;100445.16;;;9.55;100.00
61618;BME280;47518;51.776;9.370;2023-02-18T05:01:36;100431.91;;;9.60;100.00
61618;BME280;47518;51.776;9.370;2023-02-18T05:04:01;100429.03;;;9.54;100.00
61618;BME280;47518;51.776;9.370;2023-02-18T05:06:26;100434.63;;;9.60;100.00
61618;BME280;47518;51.776;9.370;2023-02-18T05:08:52;100427.38;;;9.61;100.00
61618;BME280;47518;51.776;9.370;2023-02-18T05:11:17;100421.59;;;9.64;100.00
61618;BME280;47518;51.776;9.370;2023-02-18T05:13:42;100424.31;;;9.64;100.00
61618;BME280;47518;51.776;9.370;2023-02-18T05:16:07;100414.97;;;9.58;100.00
61618;BME280;47518;51.776;9.370;2023-02-18T05:18:33;100406.16;;;9.64;100.00
61618;BME280;47518;51.776;9.370;2023-02-18T05:20:58;100409.72;;;9.65;100.00
61618;BME280;47518;51.776;9.370;2023-02-18T05:23:24;100406.50;;;9.70;100.00
61618;BME280;47518;51.776;9.370;2023-02-18T05:25:50;100405.81;;;9.76;100.00
61618;BME280;47518;51.776;9.370;2023-02-18T05:28:15;100395.31;;;9.73;100.00
61618;BME280;47518;51.776;9.370;2023-02-18T05:30:41;100395.63;;;9.70;100.00
61618;BME280;47518;51.776;9.370;2023-02-18T05:33:06;100383.56;;;9.72;100.00
61618;BME280;47518;51.776;9.370;2023-02-18T05:35:31;100384.09;;;9.84;99.58
61618;BME280;47518;51.776;9.370;2023-02-18T05:37:57;100396.81;;;9.91;98.32
61618;BME280;47518;51.776;9.370;2023-02-18T05:40:22;100388.84;;;9.98;98.61
61618;BME280;47518;51.776;9.370;2023-02-18T05:42:47;100387.66;;;9.92;99.56
61618;BME280;47518;51.776;9.370;2023-02-18T05:45:13;100380.34;;;9.93;98.23
61618;BME280;47518;51.776;9.370;2023-02-18T05:47:38;100371.38;;;9.92;98.60
61618;BME280;47518;51.776;9.370;2023-02-18T05:50:04;100370.19;;;9.87;99.35
61618;BME280;47518;51.776;9.370;2023-02-18T05:52:29;100366.94;;;9.91;99.10
61618;BME280;47518;51.776;9.370;2023-02-18T05:54:55;100372.38;;;9.91;99.44
61618;BME280;47518;51.776;9.370;2023-02-18T05:57:20;100369.66;;;9.91;99.18
61618;BME280;47518;51.776;9.370;2023-02-18T05:59:45;100365.44;;;9.97;99.20
61618;BME280;47518;51.776;9.370;2023-02-18T06:02:11;100363.22;;;9.92;100.00
61618;BME280;47518;51.776;9.370;2023-02-18T06:04:36;100347.28;;;9.81;100.00
61618;BME280;47518;51.776;9.370;2023-02-18T06:07:01;100347.44;;;9.88;100.00
61618;BME280;47518;51.776;9.370;2023-02-18T06:09:28;100338.78;;;10.01;99.09
61618;BME280;47518;51.776;9.370;2023-02-18T06:25:18;100314.72;;;9.41;100.00
61618;BME280;47518;51.776;9.370;2023-02-18T06:27:43;100316.56;;;9.56;100.00
61618;BME280;47518;51.776;9.370;2023-02-18T06:30:09;100315.91;;;9.62;100.00
61618;BME280;47518;51.776;9.370;2023-02-18T06:32:34;100306.72;;;9.72;100.00
61618;BME280;47518;51.776;9.370;2023-02-18T06:35:00;100317.25;;;9.67;100.00
61618;BME280;47518;51.776;9.370;2023-02-18T06:37:25;100317.22;;;9.83;100.00
61618;BME280;47518;51.776;9.370;2023-02-18T06:39:50;100315.22;;;9.69;100.00
61618;BME280;47518;51.776;9.370;2023-02-18T06:42:16;100303.69;;;9.75;100.00
61618;BME280;47518;51.776;9.370;2023-02-18T06:44:41;100306.03;;;9.70;100.00
61618;BME280;47518;51.776;9.370;2023-02-18T06:47:06;100297.19;;;9.84;100.00
61618;BME280;47518;51.776;9.370;2023-02-18T06:49:32;100289.94;;;9.68;100.00
61618;BME280;47518;51.776;9.370;2023-02-18T06:51:57;100282.63;;;9.77;100.00
61618;BME280;47518;51.776;9.370;2023-02-18T06:54:23;100288.91;;;9.69;100.00
61618;BME280;47518;51.776;9.370;2023-02-18T06:56:49;100285.53;;;9.59;100.00
61618;BME280;47518;51.776;9.370;2023-02-18T06:59:15;100279.44;;;9.57;100.00
61618;BME280;47518;51.776;9.370;2023-02-18T07:01:40;100277.22;;;9.60;100.00
61618;BME280;47518;51.776;9.370;2023-02-18T07:04:05;100274.16;;;9.55;100.00
61618;BME280;47518;51.776;9.370;2023-02-18T07:06:31;100285.03;;;9.63;100.00
61618;BME280;47518;51.776;9.370;2023-02-18T07:08:56;100294.69;;;9.66;100.00
61618;BME280;47518;51.776;9.370;2023-02-18T07:11:21;100280.63;;;9.62;100.00
61618;BME280;47518;51.776;9.370;2023-02-18T07:13:47;100289.13;;;9.51;100.00
61618;BME280;47518;51.776;9.370;2023-02-18T07:16:12;100287.06;;;9.61;100.00
61618;BME280;47518;51.776;9.370;2023-02-18T07:18:37;100293.66;;;9.59;100.00
61618;BME280;47518;51.776;9.370;2023-02-18T07:21:03;100285.19;;;9.54;100.00
61618;BME280;47518;51.776;9.370;2023-02-18T07:23:28;100277.41;;;9.51;100.00
61618;BME280;47518;51.776;9.370;2023-02-18T07:26:03;100273.69;;;9.52;100.00
61618;BME280;47518;51.776;9.370;2023-02-18T07:28:28;100278.41;;;9.58;100.00
61618;BME280;47518;51.776;9.370;2023-02-18T07:30:54;100282.13;;;9.57;100.00
61618;BME280;47518;51.776;9.370;2023-02-18T07:33:19;100278.09;;;9.61;100.00
61618;BME280;47518;51.776;9.370;2023-02-18T07:35:45;100271.28;;;9.57;100.00
61618;BME280;47518;51.776;9.370;2023-02-18T07:38:11;100268.25;;;9.52;100.00
61618;BME280;47518;51.776;9.370;2023-02-18T07:40:36;100268.22;;;9.60;100.00
61618;BME280;47518;51.776;9.370;2023-02-18T07:43:01;100263.50;;;9.54;100.00
61618;BME280;47518;51.776;9.370;2023-02-18T07:45:26;100253.47;;;9.54;100.00
61618;BME280;47518;51.776;9.370;2023-02-18T07:47:52;100247.88;;;9.56;100.00
61618;BME280;47518;51.776;9.370;2023-02-18T07:50:17;100248.38;;;9.59;100.00
61618;BME280;47518;51.776;9.370;2023-02-18T07:52:42;100249.06;;;9.61;100.00
61618;BME280;47518;51.776;9.370;2023-02-18T07:55:08;100250.59;;;9.64;100.00
61618;BME280;47518;51.776;9.370;2023-02-18T07:57:33;100249.56;;;9.65;100.00
61618;BME280;47518;51.776;9.370;2023-02-18T08:00:18;100234.97;;;9.74;100.00
61618;BME280;47518;51.776;9.370;2023-02-18T08:02:44;100243.13;;;9.66;100.00
61618;BME280;47518;51.776;9.370;2023-02-18T08:05:09;100239.38;;;9.67;100.00
61618;BME280;47518;51.776;9.370;2023-02-18T08:07:36;100244.97;;;9.74;100.00
61618;BME280;47518;51.776;9.370;2023-02-18T08:10:01;100247.34;;;9.69;100.00
61618;BME280;47518;51.776;9.370;2023-02-18T08:12:26;100243.97;;;9.75;100.00
61618;BME280;47518;51.776;9.370;2023-02-18T08:14:52;100239.34;;;9.83;100.00
61618;BME280;47518;51.776;9.370;2023-02-18T08:17:17;100233.06;;;9.83;100.00
61618;BME280;47518;51.776;9.370;2023-02-18T08:19:42;100242.38;;;9.88;100.00
61618;BME280;47518;51.776;9.370;2023-02-18T08:22:08;100240.19;;;9.84;100.00
61618;BME280;47518;51.776;9.370;2023-02-18T08:24:34;100242.56;;;9.87;100.00
61618;BME280;47518;51.776;9.370;2023-02-18T08:26:59;100233.22;;;9.81;100.00
61618;BME280;47518;51.776;9.370;2023-02-18T08:29:25;100228.47;;;9.83;100.00
61618;BME280;47518;51.776;9.370;2023-02-18T08:31:50;100219.66;;;9.81;100.00
61618;BME280;47518;51.776;9.370;2023-02-18T08:34:18;100227.63;;;9.83;100.00
61618;BME280;47518;51.776;9.370;2023-02-18T08:36:43;100238.66;;;9.89;100.00
61618;BME280;47518;51.776;9.370;2023-02-18T08:39:08;100231.88;;;9.85;100.00
61618;BME280;47518;51.776;9.370;2023-02-18T08:41:34;100224.91;;;9.83;100.00
61618;BME280;47518;51.776;9.370;2023-02-18T08:43:59;100231.34;;;9.90;100.00
61618;BME280;47518;51.776;9.370;2023-02-18T08:46:24;100218.63;;;9.82;100.00
61618;BME280;47518;51.776;9.370;2023-02-18T08:48:50;100221.72;;;9.79;100.00
61618;BME280;47518;51.776;9.370;2023-02-18T08:51:18;100224.75;;;9.84;100.00
61618;BME280;47518;51.776;9.370;2023-02-18T08:53:44;100227.44;;;9.92;100.00
61618;BME280;47518;51.776;9.370;2023-02-18T08:56:13;100218.13;;;9.87;100.00
61618;BME280;47518;51.776;9.370;2023-02-18T08:58:40;100218.63;;;9.90;100.00
61618;BME280;47518;51.776;9.370;2023-02-18T09:01:07;100228.47;;;9.91;100.00
61618;BME280;47518;51.776;9.370;2023-02-18T09:03:34;100222.53;;;9.96;100.00
61618;BME280;47518;51.776;9.370;2023-02-18T09:05:59;100220.66;;;9.97;99.33
61618;BME280;47518;51.776;9.370;2023-02-18T09:08:26;100208.25;;;9.94;100.00
61618;BME280;47518;51.776;9.370;2023-02-18T09:10:56;100231.66;;;9.95;100.00
61618;BME280;47518;51.776;9.370;2023-02-18T09:13:23;100216.56;;;10.01;98.18
61618;BME280;47518;51.776;9.370;2023-02-18T09:15:58;100201.94;;;10.02;99.28
61618;BME280;47518;51.776;9.370;2023-02-18T09:18:24;100226.56;;;10.00;98.70
61618;BME280;47518;51.776;9.370;2023-02-18T09:20:49;100209.59;;;9.98;98.91
61618;BME280;47518;51.776;9.370;2023-02-18T09:23:15;100217.22;;;10.03;97.87
61618;BME280;47518;51.776;9.370;2023-02-18T09:25:40;100223.31;;;10.05;97.57
61618;BME280;47518;51.776;9.370;2023-02-18T09:28:06;100215.72;;;10.00;97.91
61618;BME280;47518;51.776;9.370;2023-02-18T09:30:31;100216.94;;;9.89;98.86
61618;BME280;47518;51.776;9.370;2023-02-18T09:32:56;100214.41;;;9.80;99.80
61618;BME280;47518;51.776;9.370;2023-02-18T09:35:21;100227.50;;;9.76;99.88
61618;BME280;47518;51.776;9.370;2023-02-18T09:37:47;100205.97;;;9.67;100.00
61618;BME280;47518;51.776;9.370;2023-02-18T09:40:24;100207.16;;;9.64;100.00
61618;BME280;47518;51.776;9.370;2023-02-18T09:42:50;100200.38;;;9.60;100.00
61618;BME280;47518;51.776;9.370;2023-02-18T09:45:16;100196.84;;;9.51;100.00
61618;BME280;47518;51.776;9.370;2023-02-18T09:47:42;100208.03;;;9.48;100.00
61618;BME280;47518;51.776;9.370;2023-02-18T09:50:27;100196.69;;;9.45;100.00
61618;BME280;47518;51.776;9.370;2023-02-18T09:52:53;100208.19;;;9.47;100.00
61618;BME280;47518;51.776;9.370;2023-02-18T10:08:32;100185.16;;;9.43;99.90
61618;BME280;47518;51.776;9.370;2023-02-18T10:10:59;100201.06;;;9.46;99.16
61618;BME280;47518;51.776;9.370;2023-02-18T10:13:28;100184.78;;;9.46;99.24
61618;BME280;47518;51.776;9.370;2023-02-18T10:15:53;100187.00;;;9.50;99.52
61618;BME280;47518;51.776;9.370;2023-02-18T10:18:24;100187.84;;;9.51;100.00
61618;BME280;47518;51.776;9.370;2023-02-18T10:20:52;100188.16;;;9.56;99.52
61618;BME280;47518;51.776;9.370;2023-02-18T10:23:20;100189.00;;;9.64;95.99
61618;BME280;47518;51.776;9.370;2023-02-18T10:25:48;100194.63;;;9.63;96.21
61618;BME280;47518;51.776;9.370;2023-02-18T10:28:14;100192.88;;;9.70;95.34
61618;BME280;47518;51.776;9.370;2023-02-18T10:30:42;100183.03;;;9.77;93.63
61618;BME280;47518;51.776;9.370;2023-02-18T10:33:26;100166.19;;;9.82;94.46
61618;BME280;47518;51.776;9.370;2023-02-18T10:36:00;100158.72;;;9.84;93.68
61618;BME280;47518;51.776;9.370;2023-02-18T10:47:36;100213.25;;;9.74;92.54
61618;BME280;47518;51.776;9.370;2023-02-18T10:52:50;100164.19;;;9.76;93.20
61618;BME280;47518;51.776;9.370;2023-02-18T10:55:16;100173.19;;;9.76;92.82
61618;BME280;47518;51.776;9.370;2023-02-18T10:57:48;100179.81;;;9.74;92.64
61618;BME280;47518;51.776;9.370;2023-02-18T11:00:23;100168.13;;;9.65;92.06
61618;BME280;47518;51.776;9.370;2023-02-18T11:05:55;100180.38;;;9.61;90.48
61618;BME280;47518;51.776;9.370;2023-02-18T11:08:24;100195.13;;;9.58;91.36
61618;BME280;47518;51.776;9.370;2023-02-18T11:10:51;100197.34;;;9.55;90.73
61618;BME280;47518;51.776;9.370;2023-02-18T11:13:24;100190.75;;;9.49;91.31
61618;BME280;47518;51.776;9.370;2023-02-18T11:15:57;100187.38;;;9.39;94.14
61618;BME280;47518;51.776;9.370;2023-02-18T11:21:30;100188.88;;;9.33;92.44
61618;BME280;47518;51.776;9.370;2023-02-18T11:23:56;100192.94;;;9.38;92.98
61618;BME280;47518;51.776;9.370;2023-02-18T11:26:27;100182.78;;;9.40;92.47
61618;BME280;47518;51.776;9.370;2023-02-18T11:28:59;100183.47;;;9.42;92.02
61618;BME280;47518;51.776;9.370;2023-02-18T11:31:37;100183.09;;;9.36;92.45
61618;BME280;47518;51.776;9.370;2023-02-18T11:34:05;100184.81;;;9.38;91.24
61618;BME280;47518;51.776;9.370;2023-02-18T11:36:33;100163.25;;;9.44;92.46
61618;BME280;47518;51.776;9.370;2023-02-18T11:52:25;100174.13;;;9.36;94.74
61618;BME280;47518;51.776;9.370;2023-02-18T11:57:53;100183.75;;;9.63;91.35
61618;BME280;47518;51.776;9.370;2023-02-18T12:03:03;100167.28;;;9.64;91.22
61618;BME280;47518;51.776;9.370;2023-02-18T12:05:33;100181.34;;;9.68;91.94
61618;BME280;47518;51.776;9.370;2023-02-18T12:08:05;100180.66;;;9.74;93.66
61618;BME280;47518;51.776;9.370;2023-02-18T12:10:35;100177.66;;;9.61;94.01
61618;BME280;47518;51.776;9.370;2023-02-18T12:13:05;100180.50;;;9.68;92.79
61618;BME280;47518;51.776;9.370;2023-02-18T12:18:51;100164.22;;;9.68;93.08
61618;BME280;47518;51.776;9.370;2023-02-18T12:21:35;100175.28;;;9.58;94.29
61618;BME280;47518;51.776;9.370;2023-02-18T12:27:04;100171.34;;;9.69;92.70
61618;BME280;47518;51.776;9.370;2023-02-18T12:29:45;100173.38;;;9.67;92.94
61618;BME280;47518;51.776;9.370;2023-02-18T12:32:25;100186.09;;;9.74;93.37
61618;BME280;47518;51.776;9.370;2023-02-18T12:44:17;100168.59;;;9.85;93.29
61618;BME280;47518;51.776;9.370;2023-02-18T12:46:59;100170.13;;;9.79;90.99
61618;BME280;47518;51.776;9.370;2023-02-18T12:52:39;100176.41;;;9.72;92.16
61618;BME280;47518;51.776;9.370;2023-02-18T12:55:42;100170.50;;;9.60;93.85
61618;BME280;47518;51.776;9.370;2023-02-18T13:01:28;100185.28;;;9.65;91.37
61618;BME280;47518;51.776;9.370;2023-02-18T13:04:02;100191.16;;;9.85;90.68
61618;BME280;47518;51.776;9.370;2023-02-18T13:28:43;100188.88;;;9.25;97.37
61618;BME280;47518;51.776;9.370;2023-02-18T13:31:21;100213.81;;;9.37;96.27
61618;BME280;47518;51.776;9.370;2023-02-18T13:34:14;100194.31;;;9.33;95.88
61618;BME280;47518;51.776;9.370;2023-02-18T13:39:51;100188.22;;;9.23;96.93
61618;BME280;47518;51.776;9.370;2023-02-18T13:42:33;100188.41;;;9.22;98.33
61618;BME280;47518;51.776;9.370;2023-02-18T13:47:44;100177.69;;;9.36;96.61
61618;BME280;47518;51.776;9.370;2023-02-18T13:50:28;100185.81;;;9.45;97.35
61618;BME280;47518;51.776;9.370;2023-02-18T13:56:03;100166.84;;;9.36;96.64
61618;BME280;47518;51.776;9.370;2023-02-18T13:58:35;100173.63;;;9.32;97.65
61618;BME280;47518;51.776;9.370;2023-02-18T14:01:12;100161.44;;;9.28;96.85
61618;BME280;47518;51.776;9.370;2023-02-18T14:22:48;100169.81;;;9.66;92.75
61618;BME280;47518;51.776;9.370;2023-02-18T14:25:21;100169.75;;;9.90;93.07
61618;BME280;47518;51.776;9.370;2023-02-18T14:27:52;100173.75;;;10.03;92.45
61618;BME280;47518;51.776;9.370;2023-02-18T14:33:14;100190.69;;;10.13;90.24
61618;BME280;47518;51.776;9.370;2023-02-18T14:35:53;100196.81;;;10.07;90.85
61618;BME280;47518;51.776;9.370;2023-02-18T14:51:48;100182.03;;;9.70;93.10
61618;BME280;47518;51.776;9.370;2023-02-18T14:54:18;100195.81;;;9.52;94.14
61618;BME280;47518;51.776;9.370;2023-02-18T14:56:55;100198.22;;;9.39;97.01
61618;BME280;47518;51.776;9.370;2023-02-18T14:59:24;100202.28;;;9.35;99.07
61618;BME280;47518;51.776;9.370;2023-02-18T15:01:53;100200.44;;;9.27;98.81
61618;BME280;47518;51.776;9.370;2023-02-18T15:04:19;100200.09;;;9.30;98.67
61618;BME280;47518;51.776;9.370;2023-02-18T15:06:45;100220.06;;;9.38;98.49
61618;BME280;47518;51.776;9.370;2023-02-18T15:09:17;100197.88;;;9.42;96.69
61618;BME280;47518;51.776;9.370;2023-02-18T15:11:47;100194.31;;;9.50;95.92
61618;BME280;47518;51.776;9.370;2023-02-18T15:14:18;100197.50;;;9.53;95.88
61618;BME280;47518;51.776;9.370;2023-02-18T15:16:44;100201.22;;;9.60;94.72
61618;BME280;47518;51.776;9.370;2023-02-18T15:19:14;100215.78;;;9.68;94.04
61618;BME280;47518;51.776;9.370;2023-02-18T15:21:44;100211.88;;;9.70;93.88
61618;BME280;47518;51.776;9.370;2023-02-18T15:24:22;100208.00;;;9.64;94.69
61618;BME280;47518;51.776;9.370;2023-02-18T15:26:48;100215.97;;;9.66;94.12
61618;BME280;47518;51.776;9.370;2023-02-18T15:29:19;100217.97;;;9.72;93.38
61618;BME280;47518;51.776;9.370;2023-02-18T15:31:46;100210.84;;;9.71;92.17
61618;BME280;47518;51.776;9.370;2023-02-18T15:34:29;100226.47;;;9.85;90.72
61618;BME280;47518;51.776;9.370;2023-02-18T15:36:57;100224.53;;;9.94;91.27
61618;BME280;47518;51.776;9.370;2023-02-18T15:39:24;100221.31;;;9.99;89.22
61618;BME280;47518;51.776;9.370;2023-02-18T15:41:53;100237.75;;;10.05;88.62
61618;BME280;47518;51.776;9.370;2023-02-18T15:44:23;100212.28;;;10.06;88.06
61618;BME280;47518;51.776;9.370;2023-02-18T15:46:50;100236.22;;;10.11;88.39
61618;BME280;47518;51.776;9.370;2023-02-18T15:49:20;100233.34;;;10.04;88.71
61618;BME280;47518;51.776;9.370;2023-02-18T15:51:47;100243.69;;;10.09;88.14
61618;BME280;47518;51.776;9.370;2023-02-18T15:54:16;100242.84;;;10.08;88.49
61618;BME280;47518;51.776;9.370;2023-02-18T15:56:44;100245.38;;;10.10;88.41
61618;BME280;47518;51.776;9.370;2023-02-18T16:12:29;100247.81;;;9.97;88.80
61618;BME280;47518;51.776;9.370;2023-02-18T16:14:56;100253.72;;;10.08;88.18
61618;BME280;47518;51.776;9.370;2023-02-18T16:17:25;100255.06;;;10.04;88.46
61618;BME280;47518;51.776;9.370;2023-02-18T16:19:57;100255.72;;;10.14;87.44
61618;BME280;47518;51.776;9.370;2023-02-18T16:25:17;100249.63;;;10.04;87.20
61618;BME280;47518;51.776;9.370;2023-02-18T16:41:05;100284.94;;;10.04;88.20
61618;BME280;47518;51.776;9.370;2023-02-18T16:43:31;100273.22;;;10.12;86.42
61618;BME280;47518;51.776;9.370;2023-02-18T16:46:06;100279.47;;;10.20;86.45
61618;BME280;47518;51.776;9.370;2023-02-18T16:48:39;100284.38;;;10.17;86.42
61618;BME280;47518;51.776;9.370;2023-02-18T16:51:11;100284.06;;;10.20;85.44
61618;BME280;47518;51.776;9.370;2023-02-18T16:53:47;100280.66;;;10.18;86.14